sensor_id;sensor_type;location;lat;lon;timestamp;temperature;humidity
18225;DHT22;9237;48.590;8.854;2023-06-04T00:00:46;13.70;95.50
18225;DHT22;9237;48.590;8.854;2023-06-04T00:03:15;13.70;95.50
18225;DHT22;9237;48.590;8.854;2023-06-04T00:05:42;13.70;95.50
18225;DHT22;9237;48.590;8.854;2023-06-04T00:08:09;13.70;95.60
18225;DHT22;9237;48.590;8.854;2023-06-04T00:10:35;13.60;95.60
18225;DHT22;9237;48.590;8.854;2023-06-04T00:13:05;13.60;95.70
18225;DHT22;9237;48.590;8.854;2023-06-04T00:15:31;13.60;96.00
18225;DHT22;9237;48.590;8.854;2023-06-04T00:17:59;13.50;96.20
18225;DHT22;9237;48.590;8.854;2023-06-04T00:20:27;13.50;96.40
18225;DHT22;9237;48.590;8.854;2023-06-04T00:22:54;13.40;96.60
18225;DHT22;9237;48.590;8.854;2023-06-04T00:25:20;13.40;96.80
18225;DHT22;9237;48.590;8.854;2023-06-04T00:27:47;13.40;97.00
18225;DHT22;9237;48.590;8.854;2023-06-04T00:30:14;13.30;97.10
18225;DHT22;9237;48.590;8.854;2023-06-04T00:32:41;13.20;97.30
18225;DHT22;9237;48.590;8.854;2023-06-04T00:35:08;13.20;97.40
18225;DHT22;9237;48.590;8.854;2023-06-04T00:37:37;13.20;97.70
18225;DHT22;9237;48.590;8.854;2023-06-04T00:40:04;13.10;97.90
18225;DHT22;9237;48.590;8.854;2023-06-04T00:42:32;13.00;98.40
18225;DHT22;9237;48.590;8.854;2023-06-04T00:44:58;12.60;99.60
18225;DHT22;9237;48.590;8.854;2023-06-04T00:47:25;12.30;99.90
18225;DHT22;9237;48.590;8.854;2023-06-04T00:49:56;12.20;99.90
18225;DHT22;9237;48.590;8.854;2023-06-04T00:52:23;12.10;99.90
18225;DHT22;9237;48.590;8.854;2023-06-04T00:54:52;12.30;99.90
18225;DHT22;9237;48.590;8.854;2023-06-04T00:57:20;12.30;99.90
18225;DHT22;9237;48.590;8.854;2023-06-04T00:59:47;12.40;99.90
18225;DHT22;9237;48.590;8.854;2023-06-04T01:02:16;12.40;99.90
18225;DHT22;9237;48.590;8.854;2023-06-04T01:04:48;12.50;99.90
18225;DHT22;9237;48.590;8.854;2023-06-04T01:07:16;12.60;99.90
18225;DHT22;9237;48.590;8.854;2023-06-04T01:09:44;12.60;99.90
18225;DHT22;9237;48.590;8.854;2023-06-04T01:12:13;12.50;99.90
18225;DHT22;9237;48.590;8.854;2023-06-04T01:14:40;12.40;99.90
18225;DHT22;9237;48.590;8.854;2023-06-04T01:17:11;12.20;99.90
18225;DHT22;9237;48.590;8.854;2023-06-04T01:20:06;12.00;99.90
18225;DHT22;9237;48.590;8.854;2023-06-04T01:22:39;11.90;99.90
18225;DHT22;9237;48.590;8.854;2023-06-04T01:25:13;11.90;99.90
18225;DHT22;9237;48.590;8.854;2023-06-04T01:27:47;11.80;99.90
18225;DHT22;9237;48.590;8.854;2023-06-04T01:30:15;11.70;99.90
18225;DHT22;9237;48.590;8.854;2023-06-04T01:32:44;11.80;99.90
18225;DHT22;9237;48.590;8.854;2023-06-04T01:35:12;11.80;99.90
18225;DHT22;9237;48.590;8.854;2023-06-04T01:37:39;11.90;99.90
18225;DHT22;9237;48.590;8.854;2023-06-04T01:40:07;11.90;99.90
18225;DHT22;9237;48.590;8.854;2023-06-04T01:42:34;12.00;99.90
18225;DHT22;9237;48.590;8.854;2023-06-04T01:45:03;12.00;99.90
18225;DHT22;9237;48.590;8.854;2023-06-04T01:47:30;12.00;99.90
18225;DHT22;9237;48.590;8.854;2023-06-04T01:49:57;11.90;99.90
18225;DHT22;9237;48.590;8.854;2023-06-04T01:52:23;11.90;99.90
18225;DHT22;9237;48.590;8.854;2023-06-04T01:54:50;11.90;99.90
18225;DHT22;9237;48.590;8.854;2023-06-04T01:57:18;11.90;99.90
18225;DHT22;9237;48.590;8.854;2023-06-04T01:59:44;11.90;99.90
18225;DHT22;9237;48.590;8.854;2023-06-04T02:02:13;11.80;99.90
18225;DHT22;9237;48.590;8.854;2023-06-04T02:04:40;11.80;99.90
18225;DHT22;9237;48.590;8.854;2023-06-04T02:07:08;11.80;99.90
18225;DHT22;9237;48.590;8.854;2023-06-04T02:09:35;11.80;99.90
18225;DHT22;9237;48.590;8.854;2023-06-04T02:12:03;11.80;99.90
18225;DHT22;9237;48.590;8.854;2023-06-04T02:14:30;11.80;99.90
18225;DHT22;9237;48.590;8.854;2023-06-04T02:16:57;11.80;99.90
18225;DHT22;9237;48.590;8.854;2023-06-04T02:19:25;11.80;99.90
18225;DHT22;9237;48.590;8.854;2023-06-04T02:21:52;11.80;99.90
18225;DHT22;9237;48.590;8.854;2023-06-04T02:24:19;11.70;99.90
18225;DHT22;9237;48.590;8.854;2023-06-04T02:26:46;11.70;99.90
18225;DHT22;9237;48.590;8.854;2023-06-04T02:29:13;11.70;99.90
18225;DHT22;9237;48.590;8.854;2023-06-04T02:31:40;11.70;99.90
18225;DHT22;9237;48.590;8.854;2023-06-04T02:34:06;11.70;99.90
18225;DHT22;9237;48.590;8.854;2023-06-04T02:36:34;11.60;99.90
18225;DHT22;9237;48.590;8.854;2023-06-04T02:39:01;11.60;99.90
18225;DHT22;9237;48.590;8.854;2023-06-04T02:41:28;11.60;99.90
18225;DHT22;9237;48.590;8.854;2023-06-04T02:43:55;11.60;99.90
18225;DHT22;9237;48.590;8.854;2023-06-04T02:46:22;11.60;99.90
18225;DHT22;9237;48.590;8.854;2023-06-04T02:48:48;11.60;99.90
18225;DHT22;9237;48.590;8.854;2023-06-04T02:51:15;11.60;99.90
18225;DHT22;9237;48.590;8.854;2023-06-04T02:53:44;11.50;99.90
18225;DHT22;9237;48.590;8.854;2023-06-04T02:56:11;11.30;99.90
18225;DHT22;9237;48.590;8.854;2023-06-04T02:58:37;11.00;99.90
18225;DHT22;9237;48.590;8.854;2023-06-04T03:01:17;10.90;99.90
18225;DHT22;9237;48.590;8.854;2023-06-04T03:03:45;11.10;99.90
18225;DHT22;9237;48.590;8.854;2023-06-04T03:06:12;11.40;99.90
18225;DHT22;9237;48.590;8.854;2023-06-04T03:08:39;11.10;99.90
18225;DHT22;9237;48.590;8.854;2023-06-04T03:11:08;11.10;99.90
18225;DHT22;9237;48.590;8.854;2023-06-04T03:13:35;10.90;99.90
18225;DHT22;9237;48.590;8.854;2023-06-04T03:16:02;10.90;99.90
18225;DHT22;9237;48.590;8.854;2023-06-04T03:18:29;10.90;99.90
18225;DHT22;9237;48.590;8.854;2023-06-04T03:20:56;10.90;99.90
18225;DHT22;9237;48.590;8.854;2023-06-04T03:23:23;10.50;99.90
18225;DHT22;9237;48.590;8.854;2023-06-04T03:25:50;10.30;99.90
18225;DHT22;9237;48.590;8.854;2023-06-04T03:28:18;10.20;99.90
18225;DHT22;9237;48.590;8.854;2023-06-04T03:30:45;10.00;99.90
18225;DHT22;9237;48.590;8.854;2023-06-04T03:33:12;10.20;99.90
18225;DHT22;9237;48.590;8.854;2023-06-04T03:35:40;10.30;99.90
18225;DHT22;9237;48.590;8.854;2023-06-04T03:38:07;10.30;99.90
18225;DHT22;9237;48.590;8.854;2023-06-04T03:40:34;10.50;99.90
18225;DHT22;9237;48.590;8.854;2023-06-04T03:43:01;10.50;99.90
18225;DHT22;9237;48.590;8.854;2023-06-04T03:45:30;10.60;99.90
18225;DHT22;9237;48.590;8.854;2023-06-04T03:47:57;10.50;99.90
18225;DHT22;9237;48.590;8.854;2023-06-04T03:50:24;10.50;99.90
18225;DHT22;9237;48.590;8.854;2023-06-04T03:52:51;10.60;99.90
18225;DHT22;9237;48.590;8.854;2023-06-04T03:55:17;10.70;99.90
18225;DHT22;9237;48.590;8.854;2023-06-04T03:57:44;10.80;99.90
18225;DHT22;9237;48.590;8.854;2023-06-04T04:00:12;10.90;99.90
18225;DHT22;9237;48.590;8.854;2023-06-04T04:02:41;11.00;99.90
18225;DHT22;9237;48.590;8.854;2023-06-04T04:05:08;11.00;99.90
18225;DHT22;9237;48.590;8.854;2023-06-04T04:07:36;11.00;99.90
18225;DHT22;9237;48.590;8.854;2023-06-04T04:10:04;11.00;99.90
18225;DHT22;9237;48.590;8.854;2023-06-04T04:12:31;11.20;99.90
18225;DHT22;9237;48.590;8.854;2023-06-04T04:14:58;11.30;99.90
18225;DHT22;9237;48.590;8.854;2023-06-04T04:17:25;11.30;99.90
18225;DHT22;9237;48.590;8.854;2023-06-04T04:19:53;11.30;99.90
18225;DHT22;9237;48.590;8.854;2023-06-04T04:22:20;11.40;99.90
18225;DHT22;9237;48.590;8.854;2023-06-04T04:24:47;11.50;99.90
18225;DHT22;9237;48.590;8.854;2023-06-04T04:27:13;11.40;99.90
18225;DHT22;9237;48.590;8.854;2023-06-04T04:29:41;11.40;99.90
18225;DHT22;9237;48.590;8.854;2023-06-04T04:32:08;11.50;99.90
18225;DHT22;9237;48.590;8.854;2023-06-04T04:34:37;11.40;99.90
18225;DHT22;9237;48.590;8.854;2023-06-04T04:37:06;11.50;99.90
18225;DHT22;9237;48.590;8.854;2023-06-04T04:39:34;11.60;99.90
18225;DHT22;9237;48.590;8.854;2023-06-04T04:42:01;11.70;99.90
18225;DHT22;9237;48.590;8.854;2023-06-04T04:44:28;11.80;99.90
18225;DHT22;9237;48.590;8.854;2023-06-04T04:46:54;12.00;99.90
18225;DHT22;9237;48.590;8.854;2023-06-04T04:49:21;12.10;99.90
18225;DHT22;9237;48.590;8.854;2023-06-04T04:51:48;12.30;99.90
18225;DHT22;9237;48.590;8.854;2023-06-04T04:54:16;12.40;99.90
18225;DHT22;9237;48.590;8.854;2023-06-04T04:56:43;12.50;99.90
18225;DHT22;9237;48.590;8.854;2023-06-04T04:59:10;12.70;99.90
18225;DHT22;9237;48.590;8.854;2023-06-04T05:01:37;13.00;99.90
18225;DHT22;9237;48.590;8.854;2023-06-04T05:04:03;13.20;99.90
18225;DHT22;9237;48.590;8.854;2023-06-04T05:06:30;13.50;99.90
18225;DHT22;9237;48.590;8.854;2023-06-04T05:08:57;13.90;99.90
18225;DHT22;9237;48.590;8.854;2023-06-04T05:11:25;14.20;99.90
18225;DHT22;9237;48.590;8.854;2023-06-04T05:13:52;14.50;99.90
18225;DHT22;9237;48.590;8.854;2023-06-04T05:16:19;14.80;99.90
18225;DHT22;9237;48.590;8.854;2023-06-04T05:18:48;15.00;99.90
18225;DHT22;9237;48.590;8.854;2023-06-04T05:21:17;15.20;99.50
18225;DHT22;9237;48.590;8.854;2023-06-04T05:23:43;15.30;99.10
18225;DHT22;9237;48.590;8.854;2023-06-04T05:26:13;15.30;97.50
18225;DHT22;9237;48.590;8.854;2023-06-04T05:28:42;15.20;97.50
18225;DHT22;9237;48.590;8.854;2023-06-04T05:31:09;15.20;97.00
18225;DHT22;9237;48.590;8.854;2023-06-04T05:33:38;15.10;97.50
18225;DHT22;9237;48.590;8.854;2023-06-04T05:36:05;15.20;96.50
18225;DHT22;9237;48.590;8.854;2023-06-04T05:38:32;15.10;96.30
18225;DHT22;9237;48.590;8.854;2023-06-04T05:41:01;15.10;96.00
18225;DHT22;9237;48.590;8.854;2023-06-04T05:43:28;15.00;95.80
18225;DHT22;9237;48.590;8.854;2023-06-04T05:45:56;15.10;96.00
18225;DHT22;9237;48.590;8.854;2023-06-04T05:48:23;15.20;96.00
18225;DHT22;9237;48.590;8.854;2023-06-04T05:50:50;15.20;94.40
18225;DHT22;9237;48.590;8.854;2023-06-04T05:53:16;15.30;94.90
18225;DHT22;9237;48.590;8.854;2023-06-04T05:55:43;15.30;94.90
18225;DHT22;9237;48.590;8.854;2023-06-04T05:58:10;15.60;94.80
18225;DHT22;9237;48.590;8.854;2023-06-04T06:00:37;15.90;94.00
18225;DHT22;9237;48.590;8.854;2023-06-04T06:03:05;16.10;92.60
18225;DHT22;9237;48.590;8.854;2023-06-04T06:05:32;16.20;91.90
18225;DHT22;9237;48.590;8.854;2023-06-04T06:07:59;15.90;91.90
18225;DHT22;9237;48.590;8.854;2023-06-04T06:10:25;16.00;92.30
18225;DHT22;9237;48.590;8.854;2023-06-04T06:12:52;16.20;92.40
18225;DHT22;9237;48.590;8.854;2023-06-04T06:15:19;16.40;92.20
18225;DHT22;9237;48.590;8.854;2023-06-04T06:17:46;16.70;91.60
18225;DHT22;9237;48.590;8.854;2023-06-04T06:20:14;17.00;91.60
18225;DHT22;9237;48.590;8.854;2023-06-04T06:22:43;17.40;90.90
18225;DHT22;9237;48.590;8.854;2023-06-04T06:25:10;17.80;89.80
18225;DHT22;9237;48.590;8.854;2023-06-04T06:27:38;17.90;88.90
18225;DHT22;9237;48.590;8.854;2023-06-04T06:30:07;18.10;86.00
18225;DHT22;9237;48.590;8.854;2023-06-04T06:32:34;18.50;84.90
18225;DHT22;9237;48.590;8.854;2023-06-04T06:35:01;18.60;85.90
18225;DHT22;9237;48.590;8.854;2023-06-04T06:37:30;18.90;82.80
18225;DHT22;9237;48.590;8.854;2023-06-04T06:39:57;19.00;80.60
18225;DHT22;9237;48.590;8.854;2023-06-04T06:42:23;18.70;81.60
18225;DHT22;9237;48.590;8.854;2023-06-04T06:44:50;18.30;82.70
18225;DHT22;9237;48.590;8.854;2023-06-04T06:47:17;18.40;83.90
18225;DHT22;9237;48.590;8.854;2023-06-04T06:49:44;18.40;82.10
18225;DHT22;9237;48.590;8.854;2023-06-04T06:52:10;18.60;82.50
18225;DHT22;9237;48.590;8.854;2023-06-04T06:54:38;19.00;81.90
18225;DHT22;9237;48.590;8.854;2023-06-04T06:57:05;19.10;80.30
18225;DHT22;9237;48.590;8.854;2023-06-04T06:59:34;18.70;81.30
18225;DHT22;9237;48.590;8.854;2023-06-04T07:02:01;19.00;82.50
18225;DHT22;9237;48.590;8.854;2023-06-04T07:04:28;19.10;82.20
18225;DHT22;9237;48.590;8.854;2023-06-04T07:06:55;19.40;79.60
18225;DHT22;9237;48.590;8.854;2023-06-04T07:09:22;19.40;79.50
18225;DHT22;9237;48.590;8.854;2023-06-04T07:11:50;19.80;79.20
18225;DHT22;9237;48.590;8.854;2023-06-04T07:14:16;20.10;77.80
18225;DHT22;9237;48.590;8.854;2023-06-04T07:16:43;20.00;78.10
18225;DHT22;9237;48.590;8.854;2023-06-04T07:19:10;20.10;79.40
18225;DHT22;9237;48.590;8.854;2023-06-04T07:21:37;20.00;77.80
18225;DHT22;9237;48.590;8.854;2023-06-04T07:24:04;20.30;77.50
18225;DHT22;9237;48.590;8.854;2023-06-04T07:26:32;20.80;75.90
18225;DHT22;9237;48.590;8.854;2023-06-04T07:29:00;21.10;74.30
18225;DHT22;9237;48.590;8.854;2023-06-04T07:31:27;20.90;76.40
18225;DHT22;9237;48.590;8.854;2023-06-04T07:33:53;21.40;74.60
18225;DHT22;9237;48.590;8.854;2023-06-04T07:36:20;21.90;73.50
18225;DHT22;9237;48.590;8.854;2023-06-04T07:38:48;22.30;73.50
18225;DHT22;9237;48.590;8.854;2023-06-04T07:41:15;21.20;72.00
18225;DHT22;9237;48.590;8.854;2023-06-04T07:43:42;21.70;74.20
18225;DHT22;9237;48.590;8.854;2023-06-04T07:46:11;21.90;70.00
18225;DHT22;9237;48.590;8.854;2023-06-04T07:48:38;21.90;72.70
18225;DHT22;9237;48.590;8.854;2023-06-04T07:51:04;21.90;72.10
18225;DHT22;9237;48.590;8.854;2023-06-04T07:53:31;22.80;69.80
18225;DHT22;9237;48.590;8.854;2023-06-04T07:55:58;23.20;68.30
18225;DHT22;9237;48.590;8.854;2023-06-04T07:58:24;23.20;72.00
18225;DHT22;9237;48.590;8.854;2023-06-04T08:00:52;23.80;67.70
18225;DHT22;9237;48.590;8.854;2023-06-04T08:03:21;23.60;66.00
18225;DHT22;9237;48.590;8.854;2023-06-04T08:05:48;23.40;65.10
18225;DHT22;9237;48.590;8.854;2023-06-04T08:08:15;23.50;65.50
18225;DHT22;9237;48.590;8.854;2023-06-04T08:10:42;23.40;67.00
18225;DHT22;9237;48.590;8.854;2023-06-04T08:13:09;23.70;67.60
18225;DHT22;9237;48.590;8.854;2023-06-04T08:15:36;24.10;65.60
18225;DHT22;9237;48.590;8.854;2023-06-04T08:18:03;24.40;63.50
18225;DHT22;9237;48.590;8.854;2023-06-04T08:20:31;24.30;63.70
18225;DHT22;9237;48.590;8.854;2023-06-04T08:22:58;24.10;64.20
18225;DHT22;9237;48.590;8.854;2023-06-04T08:25:25;24.00;65.40
18225;DHT22;9237;48.590;8.854;2023-06-04T08:27:52;24.30;64.20
18225;DHT22;9237;48.590;8.854;2023-06-04T08:30:18;24.80;62.60
18225;DHT22;9237;48.590;8.854;2023-06-04T08:32:45;25.10;61.10
18225;DHT22;9237;48.590;8.854;2023-06-04T08:35:12;24.90;60.60
18225;DHT22;9237;48.590;8.854;2023-06-04T08:37:41;24.30;61.20
18225;DHT22;9237;48.590;8.854;2023-06-04T08:40:09;24.30;61.80
18225;DHT22;9237;48.590;8.854;2023-06-04T08:42:40;24.20;60.30
18225;DHT22;9237;48.590;8.854;2023-06-04T08:45:10;24.30;61.70
18225;DHT22;9237;48.590;8.854;2023-06-04T08:47:38;25.30;60.00
18225;DHT22;9237;48.590;8.854;2023-06-04T08:50:09;25.60;58.40
18225;DHT22;9237;48.590;8.854;2023-06-04T08:52:37;25.10;59.90
18225;DHT22;9237;48.590;8.854;2023-06-04T08:55:06;25.90;59.20
18225;DHT22;9237;48.590;8.854;2023-06-04T08:57:35;26.60;57.90
18225;DHT22;9237;48.590;8.854;2023-06-04T09:00:02;26.00;58.40
18225;DHT22;9237;48.590;8.854;2023-06-04T09:02:30;26.20;55.80
18225;DHT22;9237;48.590;8.854;2023-06-04T09:04:57;26.50;54.40
18225;DHT22;9237;48.590;8.854;2023-06-04T09:07:24;25.70;54.20
18225;DHT22;9237;48.590;8.854;2023-06-04T09:09:52;25.10;56.60
18225;DHT22;9237;48.590;8.854;2023-06-04T09:12:23;26.10;56.70
18225;DHT22;9237;48.590;8.854;2023-06-04T09:14:50;25.50;54.80
18225;DHT22;9237;48.590;8.854;2023-06-04T09:17:21;26.20;56.60
18225;DHT22;9237;48.590;8.854;2023-06-04T09:19:48;25.80;55.40
18225;DHT22;9237;48.590;8.854;2023-06-04T09:22:15;25.70;55.60
18225;DHT22;9237;48.590;8.854;2023-06-04T09:24:43;26.50;55.40
18225;DHT22;9237;48.590;8.854;2023-06-04T09:27:12;26.20;54.90
18225;DHT22;9237;48.590;8.854;2023-06-04T09:29:48;25.60;56.10
18225;DHT22;9237;48.590;8.854;2023-06-04T09:32:20;26.00;55.00
18225;DHT22;9237;48.590;8.854;2023-06-04T09:34:47;26.10;55.00
18225;DHT22;9237;48.590;8.854;2023-06-04T09:37:14;25.80;54.60
18225;DHT22;9237;48.590;8.854;2023-06-04T09:39:41;25.90;55.70
18225;DHT22;9237;48.590;8.854;2023-06-04T09:42:08;26.80;53.90
18225;DHT22;9237;48.590;8.854;2023-06-04T09:44:44;27.20;52.80
18225;DHT22;9237;48.590;8.854;2023-06-04T09:47:11;26.20;54.00
18225;DHT22;9237;48.590;8.854;2023-06-04T09:49:40;26.70;56.50
18225;DHT22;9237;48.590;8.854;2023-06-04T09:52:07;26.40;53.20
18225;DHT22;9237;48.590;8.854;2023-06-04T09:54:36;26.20;54.50
18225;DHT22;9237;48.590;8.854;2023-06-04T09:57:04;26.90;53.30
18225;DHT22;9237;48.590;8.854;2023-06-04T09:59:35;27.10;51.70
18225;DHT22;9237;48.590;8.854;2023-06-04T10:02:06;27.50;51.20
18225;DHT22;9237;48.590;8.854;2023-06-04T10:04:35;26.50;53.80
18225;DHT22;9237;48.590;8.854;2023-06-04T10:07:04;27.10;54.90
18225;DHT22;9237;48.590;8.854;2023-06-04T10:09:32;27.50;55.00
18225;DHT22;9237;48.590;8.854;2023-06-04T10:12:00;26.20;53.50
18225;DHT22;9237;48.590;8.854;2023-06-04T10:14:32;26.80;52.90
18225;DHT22;9237;48.590;8.854;2023-06-04T10:17:04;26.10;54.90
18225;DHT22;9237;48.590;8.854;2023-06-04T10:19:33;26.30;53.30
18225;DHT22;9237;48.590;8.854;2023-06-04T10:22:01;26.70;52.80
18225;DHT22;9237;48.590;8.854;2023-06-04T10:24:28;27.70;53.40
18225;DHT22;9237;48.590;8.854;2023-06-04T10:26:58;27.90;53.20
18225;DHT22;9237;48.590;8.854;2023-06-04T10:29:25;28.70;53.00
18225;DHT22;9237;48.590;8.854;2023-06-04T10:31:54;28.70;51.20
18225;DHT22;9237;48.590;8.854;2023-06-04T10:34:22;28.50;50.20
18225;DHT22;9237;48.590;8.854;2023-06-04T10:36:49;28.50;49.50
18225;DHT22;9237;48.590;8.854;2023-06-04T10:39:25;28.80;50.40
18225;DHT22;9237;48.590;8.854;2023-06-04T10:42:00;26.70;51.70
18225;DHT22;9237;48.590;8.854;2023-06-04T10:44:27;26.70;53.60
18225;DHT22;9237;48.590;8.854;2023-06-04T10:46:54;26.90;52.50
18225;DHT22;9237;48.590;8.854;2023-06-04T10:49:29;27.70;53.50
18225;DHT22;9237;48.590;8.854;2023-06-04T10:51:56;28.20;51.20
18225;DHT22;9237;48.590;8.854;2023-06-04T10:54:28;28.40;51.70
18225;DHT22;9237;48.590;8.854;2023-06-04T10:56:55;27.90;51.00
18225;DHT22;9237;48.590;8.854;2023-06-04T10:59:22;27.60;51.30
18225;DHT22;9237;48.590;8.854;2023-06-04T11:01:49;27.20;52.00
18225;DHT22;9237;48.590;8.854;2023-06-04T11:04:21;27.60;53.10
18225;DHT22;9237;48.590;8.854;2023-06-04T11:07:00;26.90;51.10
18225;DHT22;9237;48.590;8.854;2023-06-04T11:09:29;27.90;51.60
18225;DHT22;9237;48.590;8.854;2023-06-04T11:11:57;27.10;51.20
18225;DHT22;9237;48.590;8.854;2023-06-04T11:14:24;25.80;55.10
18225;DHT22;9237;48.590;8.854;2023-06-04T11:16:51;25.80;53.90
18225;DHT22;9237;48.590;8.854;2023-06-04T11:19:17;26.30;53.30
18225;DHT22;9237;48.590;8.854;2023-06-04T11:21:44;26.30;53.60
18225;DHT22;9237;48.590;8.854;2023-06-04T11:24:13;28.20;51.70
18225;DHT22;9237;48.590;8.854;2023-06-04T11:26:40;28.20;50.50
18225;DHT22;9237;48.590;8.854;2023-06-04T11:29:08;28.90;49.00
18225;DHT22;9237;48.590;8.854;2023-06-04T11:31:44;29.00;48.30
18225;DHT22;9237;48.590;8.854;2023-06-04T11:34:11;27.90;49.00
18225;DHT22;9237;48.590;8.854;2023-06-04T11:36:48;27.00;50.90
18225;DHT22;9237;48.590;8.854;2023-06-04T11:39:20;27.00;51.90
18225;DHT22;9237;48.590;8.854;2023-06-04T11:41:47;27.50;51.30
18225;DHT22;9237;48.590;8.854;2023-06-04T11:44:18;27.30;50.40
18225;DHT22;9237;48.590;8.854;2023-06-04T11:46:45;27.50;50.40
18225;DHT22;9237;48.590;8.854;2023-06-04T11:49:16;28.60;48.90
18225;DHT22;9237;48.590;8.854;2023-06-04T11:51:46;27.90;48.90
18225;DHT22;9237;48.590;8.854;2023-06-04T11:54:13;26.00;50.90
18225;DHT22;9237;48.590;8.854;2023-06-04T11:56:41;26.20;53.20
18225;DHT22;9237;48.590;8.854;2023-06-04T11:59:10;27.60;50.00
18225;DHT22;9237;48.590;8.854;2023-06-04T12:01:39;27.60;49.30
18225;DHT22;9237;48.590;8.854;2023-06-04T12:04:12;26.40;51.10
18225;DHT22;9237;48.590;8.854;2023-06-04T12:06:50;26.40;52.20
18225;DHT22;9237;48.590;8.854;2023-06-04T12:09:20;26.80;51.80
18225;DHT22;9237;48.590;8.854;2023-06-04T12:11:49;27.10;50.50
18225;DHT22;9237;48.590;8.854;2023-06-04T12:14:17;26.90;50.90
18225;DHT22;9237;48.590;8.854;2023-06-04T12:16:54;28.10;51.70
18225;DHT22;9237;48.590;8.854;2023-06-04T12:19:21;29.10;48.10
18225;DHT22;9237;48.590;8.854;2023-06-04T12:21:59;30.00;46.50
18225;DHT22;9237;48.590;8.854;2023-06-04T12:24:27;30.40;44.80
18225;DHT22;9237;48.590;8.854;2023-06-04T12:27:03;29.70;46.10
18225;DHT22;9237;48.590;8.854;2023-06-04T12:29:30;26.80;49.40
18225;DHT22;9237;48.590;8.854;2023-06-04T12:32:05;26.10;51.80
18225;DHT22;9237;48.590;8.854;2023-06-04T12:34:33;26.80;51.00
18225;DHT22;9237;48.590;8.854;2023-06-04T12:37:00;28.10;47.30
18225;DHT22;9237;48.590;8.854;2023-06-04T12:39:28;28.70;46.40
18225;DHT22;9237;48.590;8.854;2023-06-04T12:41:55;30.50;45.90
18225;DHT22;9237;48.590;8.854;2023-06-04T12:44:23;31.10;43.60
18225;DHT22;9237;48.590;8.854;2023-06-04T12:46:51;29.20;44.30
18225;DHT22;9237;48.590;8.854;2023-06-04T12:49:17;27.90;46.80
18225;DHT22;9237;48.590;8.854;2023-06-04T12:51:44;26.20;49.70
18225;DHT22;9237;48.590;8.854;2023-06-04T12:54:11;26.80;50.40
18225;DHT22;9237;48.590;8.854;2023-06-04T12:56:39;26.70;49.20
18225;DHT22;9237;48.590;8.854;2023-06-04T12:59:05;26.90;52.40
18225;DHT22;9237;48.590;8.854;2023-06-04T13:01:34;28.30;47.00
18225;DHT22;9237;48.590;8.854;2023-06-04T13:04:02;29.20;47.00
18225;DHT22;9237;48.590;8.854;2023-06-04T13:06:29;29.60;46.70
18225;DHT22;9237;48.590;8.854;2023-06-04T13:08:56;28.00;46.80
18225;DHT22;9237;48.590;8.854;2023-06-04T13:11:23;27.00;48.40
18225;DHT22;9237;48.590;8.854;2023-06-04T13:13:50;27.40;48.90
18225;DHT22;9237;48.590;8.854;2023-06-04T13:16:17;27.90;48.70
18225;DHT22;9237;48.590;8.854;2023-06-04T13:18:45;29.30;47.60
18225;DHT22;9237;48.590;8.854;2023-06-04T13:21:12;30.40;46.40
18225;DHT22;9237;48.590;8.854;2023-06-04T13:23:39;30.50;44.40
18225;DHT22;9237;48.590;8.854;2023-06-04T13:26:06;30.50;43.50
18225;DHT22;9237;48.590;8.854;2023-06-04T13:28:32;30.00;44.20
18225;DHT22;9237;48.590;8.854;2023-06-04T13:30:59;30.50;42.20
18225;DHT22;9237;48.590;8.854;2023-06-04T13:33:27;31.80;41.30
18225;DHT22;9237;48.590;8.854;2023-06-04T13:35:55;29.50;43.60
18225;DHT22;9237;48.590;8.854;2023-06-04T13:38:22;29.20;43.90
18225;DHT22;9237;48.590;8.854;2023-06-04T13:40:49;29.10;44.20
18225;DHT22;9237;48.590;8.854;2023-06-04T13:43:15;28.40;45.10
18225;DHT22;9237;48.590;8.854;2023-06-04T13:45:42;29.00;43.70
18225;DHT22;9237;48.590;8.854;2023-06-04T13:48:10;28.40;44.30
18225;DHT22;9237;48.590;8.854;2023-06-04T13:50:37;28.20;45.70
18225;DHT22;9237;48.590;8.854;2023-06-04T13:53:05;27.70;46.50
18225;DHT22;9237;48.590;8.854;2023-06-04T13:55:32;27.70;45.20
18225;DHT22;9237;48.590;8.854;2023-06-04T13:57:59;27.10;45.30
18225;DHT22;9237;48.590;8.854;2023-06-04T14:00:26;27.70;45.60
18225;DHT22;9237;48.590;8.854;2023-06-04T14:02:55;29.20;43.20
18225;DHT22;9237;48.590;8.854;2023-06-04T14:05:24;29.90;43.60
18225;DHT22;9237;48.590;8.854;2023-06-04T14:07:53;29.90;42.70
18225;DHT22;9237;48.590;8.854;2023-06-04T14:10:21;29.30;42.30
18225;DHT22;9237;48.590;8.854;2023-06-04T14:12:48;29.50;43.10
18225;DHT22;9237;48.590;8.854;2023-06-04T14:15:14;28.70;42.30
18225;DHT22;9237;48.590;8.854;2023-06-04T14:17:41;28.40;44.30
18225;DHT22;9237;48.590;8.854;2023-06-04T14:20:08;29.00;43.80
18225;DHT22;9237;48.590;8.854;2023-06-04T14:22:37;29.90;42.10
18225;DHT22;9237;48.590;8.854;2023-06-04T14:25:04;29.20;42.20
18225;DHT22;9237;48.590;8.854;2023-06-04T14:27:33;29.70;42.60
18225;DHT22;9237;48.590;8.854;2023-06-04T14:30:00;28.80;42.30
18225;DHT22;9237;48.590;8.854;2023-06-04T14:32:27;28.70;43.40
18225;DHT22;9237;48.590;8.854;2023-06-04T14:34:54;28.60;43.70
18225;DHT22;9237;48.590;8.854;2023-06-04T14:37:22;27.50;43.70
18225;DHT22;9237;48.590;8.854;2023-06-04T14:39:49;27.30;44.10
18225;DHT22;9237;48.590;8.854;2023-06-04T14:42:15;29.10;43.20
18225;DHT22;9237;48.590;8.854;2023-06-04T14:44:44;29.60;42.90
18225;DHT22;9237;48.590;8.854;2023-06-04T14:47:11;29.00;43.20
18225;DHT22;9237;48.590;8.854;2023-06-04T14:49:38;28.80;43.50
18225;DHT22;9237;48.590;8.854;2023-06-04T14:52:05;28.60;44.90
18225;DHT22;9237;48.590;8.854;2023-06-04T14:54:32;29.00;44.10
18225;DHT22;9237;48.590;8.854;2023-06-04T14:56:59;29.50;42.70
18225;DHT22;9237;48.590;8.854;2023-06-04T14:59:26;29.30;42.30
18225;DHT22;9237;48.590;8.854;2023-06-04T15:01:54;29.70;42.70
18225;DHT22;9237;48.590;8.854;2023-06-04T15:04:21;29.30;43.10
18225;DHT22;9237;48.590;8.854;2023-06-04T15:06:48;28.80;43.60
18225;DHT22;9237;48.590;8.854;2023-06-04T15:09:15;27.80;43.80
18225;DHT22;9237;48.590;8.854;2023-06-04T15:11:42;27.00;45.60
18225;DHT22;9237;48.590;8.854;2023-06-04T15:14:09;26.60;45.50
18225;DHT22;9237;48.590;8.854;2023-06-04T15:16:36;26.40;46.80
18225;DHT22;9237;48.590;8.854;2023-06-04T15:19:04;26.60;46.80
18225;DHT22;9237;48.590;8.854;2023-06-04T15:21:31;26.50;46.30
18225;DHT22;9237;48.590;8.854;2023-06-04T15:23:57;26.30;46.90
18225;DHT22;9237;48.590;8.854;2023-06-04T15:26:24;26.20;47.10
18225;DHT22;9237;48.590;8.854;2023-06-04T15:28:52;26.20;46.30
18225;DHT22;9237;48.590;8.854;2023-06-04T15:31:19;26.00;46.10
18225;DHT22;9237;48.590;8.854;2023-06-04T15:33:46;26.50;47.10
18225;DHT22;9237;48.590;8.854;2023-06-04T15:36:14;26.80;45.80
18225;DHT22;9237;48.590;8.854;2023-06-04T15:38:41;26.80;45.90
18225;DHT22;9237;48.590;8.854;2023-06-04T15:41:08;26.60;45.50
18225;DHT22;9237;48.590;8.854;2023-06-04T15:43:34;26.50;46.30
18225;DHT22;9237;48.590;8.854;2023-06-04T15:46:01;26.90;45.50
18225;DHT22;9237;48.590;8.854;2023-06-04T15:48:28;26.80;45.20